Terminal Aerodrome Forecast
Issued by NWS Brownsville, TX

Home | Current Version | Previous Version | Text Only | Print | Product List | Glossary On
Versions: 1 2 3 4 5 6 7 8 9 10 11 12
000
FTUS44 KBRO 211736
TAFMFE
TAF
KMFE 211736Z 2118/2218 09007KT P6SM SCT045
     FM212000 10014G21KT P6SM SCT060
     FM220400 11008KT P6SM SKC
     FM220900 00000KT P6SM SCT020
     FM221400 VRB04KT P6SM SCT040=

USA.gov is the U.S. government's official web portal to all federal, state and local government web resources and services.